sensor_id;sensor_type;location;lat;lon;timestamp;pressure;altitude;pressure_sealevel;temperature;humidity
12626;BME280;6378;42.684;23.372;2022-10-23T00:02:03;95583.34;;;12.22;100.00
12626;BME280;6378;42.684;23.372;2022-10-23T00:04:29;95533.16;;;11.93;100.00
12626;BME280;6378;42.684;23.372;2022-10-23T00:06:54;95568.31;;;12.21;100.00
12626;BME280;6378;42.684;23.372;2022-10-23T00:09:22;95583.34;;;12.22;100.00
12626;BME280;6378;42.684;23.372;2022-10-23T00:11:49;95555.53;;;12.06;100.00
12626;BME280;6378;42.684;23.372;2022-10-23T00:14:17;95553.16;;;12.04;100.00
12626;BME280;6378;42.684;23.372;2022-10-23T00:16:44;95575.41;;;12.13;100.00
12626;BME280;6378;42.684;23.372;2022-10-23T00:19:10;95580.00;;;12.13;100.00
12626;BME280;6378;42.684;23.372;2022-10-23T00:21:35;95574.19;;;12.11;100.00
12626;BME280;6378;42.684;23.372;2022-10-23T00:24:01;95562.00;;;12.17;100.00
12626;BME280;6378;42.684;23.372;2022-10-23T00:26:27;95556.25;;;12.19;100.00
12626;BME280;6378;42.684;23.372;2022-10-23T00:28:53;95536.09;;;12.00;100.00
12626;BME280;6378;42.684;23.372;2022-10-23T00:31:20;95578.25;;;12.33;100.00
12626;BME280;6378;42.684;23.372;2022-10-23T00:33:46;95570.38;;;12.40;100.00
12626;BME280;6378;42.684;23.372;2022-10-23T00:36:13;95577.22;;;12.37;100.00
12626;BME280;6378;42.684;23.372;2022-10-23T00:38:39;95545.94;;;12.21;100.00
12626;BME280;6378;42.684;23.372;2022-10-23T00:41:06;95577.00;;;12.42;100.00
12626;BME280;6378;42.684;23.372;2022-10-23T00:43:33;95565.53;;;12.45;100.00
12626;BME280;6378;42.684;23.372;2022-10-23T00:45:58;95562.09;;;12.61;100.00
12626;BME280;6378;42.684;23.372;2022-10-23T00:48:27;95559.63;;;12.55;100.00
12626;BME280;6378;42.684;23.372;2022-10-23T00:50:53;95537.03;;;12.48;100.00
12626;BME280;6378;42.684;23.372;2022-10-23T00:53:20;95533.75;;;12.54;100.00
12626;BME280;6378;42.684;23.372;2022-10-23T00:55:48;95541.69;;;12.63;100.00
12626;BME280;6378;42.684;23.372;2022-10-23T00:58:16;95540.47;;;12.76;100.00
12626;BME280;6378;42.684;23.372;2022-10-23T01:00:51;95581.00;;;12.61;100.00
12626;BME280;6378;42.684;23.372;2022-10-23T01:03:19;95595.44;;;11.88;100.00
12626;BME280;6378;42.684;23.372;2022-10-23T01:11:31;95588.88;;;10.92;100.00
12626;BME280;6378;42.684;23.372;2022-10-23T01:14:22;95605.88;;;10.72;100.00
12626;BME280;6378;42.684;23.372;2022-10-23T01:19:36;95596.50;;;9.95;100.00
12626;BME280;6378;42.684;23.372;2022-10-23T01:25:04;95626.50;;;10.06;100.00
12626;BME280;6378;42.684;23.372;2022-10-23T01:27:39;95609.56;;;10.05;100.00
12626;BME280;6378;42.684;23.372;2022-10-23T01:30:07;95625.41;;;10.27;100.00
12626;BME280;6378;42.684;23.372;2022-10-23T01:35:12;95633.28;;;10.53;100.00
12626;BME280;6378;42.684;23.372;2022-10-23T01:37:41;95651.13;;;10.58;100.00
12626;BME280;6378;42.684;23.372;2022-10-23T01:40:17;95646.03;;;10.44;100.00
12626;BME280;6378;42.684;23.372;2022-10-23T01:42:49;95655.41;;;10.38;100.00
12626;BME280;6378;42.684;23.372;2022-10-23T01:45:22;95652.13;;;10.53;100.00
12626;BME280;6378;42.684;23.372;2022-10-23T01:47:49;95656.13;;;10.47;100.00
12626;BME280;6378;42.684;23.372;2022-10-23T01:50:17;95657.50;;;10.53;100.00
12626;BME280;6378;42.684;23.372;2022-10-23T01:52:43;95653.03;;;10.57;100.00
12626;BME280;6378;42.684;23.372;2022-10-23T01:55:10;95620.72;;;10.57;100.00
12626;BME280;6378;42.684;23.372;2022-10-23T01:57:38;95630.09;;;10.72;100.00
12626;BME280;6378;42.684;23.372;2022-10-23T02:00:08;95635.66;;;10.88;100.00
12626;BME280;6378;42.684;23.372;2022-10-23T02:02:36;95631.84;;;10.89;100.00
12626;BME280;6378;42.684;23.372;2022-10-23T02:05:10;95644.69;;;11.04;100.00
12626;BME280;6378;42.684;23.372;2022-10-23T02:07:37;95634.34;;;11.06;100.00
12626;BME280;6378;42.684;23.372;2022-10-23T02:10:04;95646.41;;;11.20;100.00
12626;BME280;6378;42.684;23.372;2022-10-23T02:12:53;95644.50;;;11.21;100.00
12626;BME280;6378;42.684;23.372;2022-10-23T02:23:24;95636.78;;;11.44;100.00
12626;BME280;6378;42.684;23.372;2022-10-23T02:25:54;95631.06;;;11.57;100.00
12626;BME280;6378;42.684;23.372;2022-10-23T02:28:28;95637.38;;;11.61;100.00
12626;BME280;6378;42.684;23.372;2022-10-23T02:30:58;95613.66;;;11.55;100.00
12626;BME280;6378;42.684;23.372;2022-10-23T02:33:26;95618.91;;;11.63;100.00
12626;BME280;6378;42.684;23.372;2022-10-23T02:35:52;95635.72;;;11.81;100.00
12626;BME280;6378;42.684;23.372;2022-10-23T02:38:38;95637.50;;;11.89;100.00
12626;BME280;6378;42.684;23.372;2022-10-23T02:43:37;95645.88;;;12.12;100.00
12626;BME280;6378;42.684;23.372;2022-10-23T02:46:20;95649.03;;;12.26;100.00
12626;BME280;6378;42.684;23.372;2022-10-23T02:49:12;95655.47;;;12.22;100.00
12626;BME280;6378;42.684;23.372;2022-10-23T02:54:30;95652.63;;;12.18;100.00
12626;BME280;6378;42.684;23.372;2022-10-23T02:59:53;95640.72;;;12.19;100.00
12626;BME280;6378;42.684;23.372;2022-10-23T03:03:01;95640.16;;;12.13;100.00
12626;BME280;6378;42.684;23.372;2022-10-23T03:05:34;95644.34;;;12.11;100.00
12626;BME280;6378;42.684;23.372;2022-10-23T03:08:03;95653.00;;;12.17;100.00
12626;BME280;6378;42.684;23.372;2022-10-23T03:10:29;95671.31;;;11.99;100.00
12626;BME280;6378;42.684;23.372;2022-10-23T03:12:54;95645.78;;;11.72;100.00
12626;BME280;6378;42.684;23.372;2022-10-23T03:15:20;95655.91;;;11.63;100.00
12626;BME280;6378;42.684;23.372;2022-10-23T03:17:45;95672.19;;;11.66;100.00
12626;BME280;6378;42.684;23.372;2022-10-23T03:20:10;95682.63;;;11.56;100.00
12626;BME280;6378;42.684;23.372;2022-10-23T03:22:36;95681.16;;;11.46;100.00
12626;BME280;6378;42.684;23.372;2022-10-23T03:25:02;95678.47;;;11.46;100.00
12626;BME280;6378;42.684;23.372;2022-10-23T03:27:28;95676.34;;;11.52;100.00
12626;BME280;6378;42.684;23.372;2022-10-23T03:29:53;95689.13;;;11.55;100.00
12626;BME280;6378;42.684;23.372;2022-10-23T03:32:19;95687.22;;;11.55;100.00
12626;BME280;6378;42.684;23.372;2022-10-23T03:34:44;95687.56;;;11.54;100.00
12626;BME280;6378;42.684;23.372;2022-10-23T03:37:10;95692.41;;;11.60;100.00
12626;BME280;6378;42.684;23.372;2022-10-23T03:39:35;95686.56;;;11.70;100.00
12626;BME280;6378;42.684;23.372;2022-10-23T03:42:00;95690.88;;;11.84;100.00
12626;BME280;6378;42.684;23.372;2022-10-23T03:44:26;95693.22;;;11.97;100.00
12626;BME280;6378;42.684;23.372;2022-10-23T03:46:51;95691.00;;;11.99;100.00
12626;BME280;6378;42.684;23.372;2022-10-23T03:49:17;95684.81;;;12.11;100.00
12626;BME280;6378;42.684;23.372;2022-10-23T03:51:43;95684.13;;;12.14;100.00
12626;BME280;6378;42.684;23.372;2022-10-23T03:54:09;95677.81;;;12.22;100.00
12626;BME280;6378;42.684;23.372;2022-10-23T03:56:34;95675.66;;;12.28;100.00
12626;BME280;6378;42.684;23.372;2022-10-23T03:59:00;95687.13;;;12.37;100.00
12626;BME280;6378;42.684;23.372;2022-10-23T04:01:25;95684.88;;;12.39;100.00
12626;BME280;6378;42.684;23.372;2022-10-23T04:03:51;95666.53;;;12.32;100.00
12626;BME280;6378;42.684;23.372;2022-10-23T04:06:16;95690.28;;;12.51;100.00
12626;BME280;6378;42.684;23.372;2022-10-23T04:08:43;95690.00;;;12.56;100.00
12626;BME280;6378;42.684;23.372;2022-10-23T04:11:09;95687.31;;;12.56;100.00
12626;BME280;6378;42.684;23.372;2022-10-23T04:13:34;95684.09;;;12.50;100.00
12626;BME280;6378;42.684;23.372;2022-10-23T04:16:00;95694.81;;;12.75;100.00
12626;BME280;6378;42.684;23.372;2022-10-23T04:18:25;95702.78;;;12.83;100.00
12626;BME280;6378;42.684;23.372;2022-10-23T04:20:50;95707.69;;;12.93;100.00
12626;BME280;6378;42.684;23.372;2022-10-23T04:23:16;95706.91;;;12.93;100.00
12626;BME280;6378;42.684;23.372;2022-10-23T04:25:42;95704.91;;;12.90;100.00
12626;BME280;6378;42.684;23.372;2022-10-23T04:28:07;95720.44;;;12.81;100.00
12626;BME280;6378;42.684;23.372;2022-10-23T04:30:33;95703.81;;;12.79;100.00
12626;BME280;6378;42.684;23.372;2022-10-23T04:32:59;95714.69;;;12.82;100.00
12626;BME280;6378;42.684;23.372;2022-10-23T04:35:24;95701.88;;;12.79;100.00
12626;BME280;6378;42.684;23.372;2022-10-23T04:37:50;95716.94;;;12.92;100.00
12626;BME280;6378;42.684;23.372;2022-10-23T04:40:15;95713.00;;;12.90;100.00
12626;BME280;6378;42.684;23.372;2022-10-23T04:42:40;95716.84;;;12.77;100.00
12626;BME280;6378;42.684;23.372;2022-10-23T04:45:06;95708.66;;;12.73;100.00
12626;BME280;6378;42.684;23.372;2022-10-23T04:47:32;95705.41;;;12.68;100.00
12626;BME280;6378;42.684;23.372;2022-10-23T04:49:57;95707.56;;;12.62;100.00
12626;BME280;6378;42.684;23.372;2022-10-23T04:52:22;95721.50;;;12.64;100.00
12626;BME280;6378;42.684;23.372;2022-10-23T04:54:48;95712.47;;;12.72;100.00
12626;BME280;6378;42.684;23.372;2022-10-23T04:57:14;95722.31;;;12.65;100.00
12626;BME280;6378;42.684;23.372;2022-10-23T04:59:39;95714.19;;;12.65;100.00
12626;BME280;6378;42.684;23.372;2022-10-23T05:02:04;95719.38;;;12.70;100.00
12626;BME280;6378;42.684;23.372;2022-10-23T05:04:30;95716.84;;;12.89;100.00
12626;BME280;6378;42.684;23.372;2022-10-23T05:07:14;95711.06;;;12.90;100.00
12626;BME280;6378;42.684;23.372;2022-10-23T05:09:40;95720.88;;;12.95;100.00
12626;BME280;6378;42.684;23.372;2022-10-23T05:12:05;95720.59;;;13.12;100.00
12626;BME280;6378;42.684;23.372;2022-10-23T05:14:30;95719.66;;;13.48;100.00
12626;BME280;6378;42.684;23.372;2022-10-23T05:17:06;95714.06;;;13.88;100.00
12626;BME280;6378;42.684;23.372;2022-10-23T05:19:42;95693.19;;;14.20;100.00
12626;BME280;6378;42.684;23.372;2022-10-23T05:22:10;95712.00;;;14.83;100.00
12626;BME280;6378;42.684;23.372;2022-10-23T05:24:36;95721.28;;;15.20;100.00
12626;BME280;6378;42.684;23.372;2022-10-23T05:27:02;95714.69;;;15.59;100.00
12626;BME280;6378;42.684;23.372;2022-10-23T05:29:27;95714.91;;;15.93;100.00
12626;BME280;6378;42.684;23.372;2022-10-23T05:31:56;95724.53;;;16.36;97.15
12626;BME280;6378;42.684;23.372;2022-10-23T05:34:24;95729.47;;;16.79;82.65
12626;BME280;6378;42.684;23.372;2022-10-23T05:36:51;95739.13;;;17.07;75.98
12626;BME280;6378;42.684;23.372;2022-10-23T05:39:17;95738.22;;;16.43;82.11
12626;BME280;6378;42.684;23.372;2022-10-23T05:41:42;95746.97;;;16.56;83.35
12626;BME280;6378;42.684;23.372;2022-10-23T05:44:08;95751.41;;;16.67;83.22
12626;BME280;6378;42.684;23.372;2022-10-23T05:46:33;95759.28;;;17.02;80.42
12626;BME280;6378;42.684;23.372;2022-10-23T05:48:58;95768.81;;;16.89;77.91
12626;BME280;6378;42.684;23.372;2022-10-23T05:51:24;95787.81;;;16.36;80.47
12626;BME280;6378;42.684;23.372;2022-10-23T05:53:51;95788.75;;;15.41;89.38
12626;BME280;6378;42.684;23.372;2022-10-23T05:56:17;95778.97;;;15.17;95.55
12626;BME280;6378;42.684;23.372;2022-10-23T05:58:43;95788.53;;;15.69;96.18
12626;BME280;6378;42.684;23.372;2022-10-23T06:01:12;95782.84;;;16.19;87.01
12626;BME280;6378;42.684;23.372;2022-10-23T06:03:38;95795.22;;;16.39;85.03
12626;BME280;6378;42.684;23.372;2022-10-23T06:06:05;95790.75;;;16.51;83.31
12626;BME280;6378;42.684;23.372;2022-10-23T06:08:31;95790.06;;;16.57;82.11
12626;BME280;6378;42.684;23.372;2022-10-23T06:10:57;95750.91;;;16.35;83.51
12626;BME280;6378;42.684;23.372;2022-10-23T06:13:23;95770.16;;;16.50;82.27
12626;BME280;6378;42.684;23.372;2022-10-23T06:15:49;95796.53;;;16.72;82.44
12626;BME280;6378;42.684;23.372;2022-10-23T06:18:14;95800.94;;;16.80;81.90
12626;BME280;6378;42.684;23.372;2022-10-23T06:20:40;95795.84;;;16.78;81.42
12626;BME280;6378;42.684;23.372;2022-10-23T06:23:06;95797.78;;;17.04;81.36
12626;BME280;6378;42.684;23.372;2022-10-23T06:25:31;95793.25;;;17.15;80.95
12626;BME280;6378;42.684;23.372;2022-10-23T06:27:57;95789.34;;;17.13;80.07
12626;BME280;6378;42.684;23.372;2022-10-23T06:30:23;95791.78;;;17.21;80.70
12626;BME280;6378;42.684;23.372;2022-10-23T06:32:49;95762.09;;;17.09;80.56
12626;BME280;6378;42.684;23.372;2022-10-23T06:35:14;95785.06;;;17.12;85.17
12626;BME280;6378;42.684;23.372;2022-10-23T06:37:40;95787.50;;;16.91;92.81
12626;BME280;6378;42.684;23.372;2022-10-23T06:40:05;95797.63;;;16.94;93.54
12626;BME280;6378;42.684;23.372;2022-10-23T06:42:33;95797.13;;;16.84;97.89
12626;BME280;6378;42.684;23.372;2022-10-23T06:44:58;95809.78;;;17.00;100.00
12626;BME280;6378;42.684;23.372;2022-10-23T06:47:23;95808.94;;;17.25;100.00
12626;BME280;6378;42.684;23.372;2022-10-23T06:49:49;95810.56;;;17.93;98.60
12626;BME280;6378;42.684;23.372;2022-10-23T06:52:14;95818.97;;;18.55;95.68
12626;BME280;6378;42.684;23.372;2022-10-23T06:54:40;95820.16;;;19.16;90.69
12626;BME280;6378;42.684;23.372;2022-10-23T06:57:05;95815.06;;;19.83;83.70
12626;BME280;6378;42.684;23.372;2022-10-23T06:59:30;95800.31;;;20.26;79.78
12626;BME280;6378;42.684;23.372;2022-10-23T07:01:56;95816.00;;;20.90;75.50
12626;BME280;6378;42.684;23.372;2022-10-23T07:04:21;95811.28;;;21.22;72.61
12626;BME280;6378;42.684;23.372;2022-10-23T07:06:47;95812.81;;;21.37;71.44
12626;BME280;6378;42.684;23.372;2022-10-23T07:09:12;95797.88;;;21.52;70.84
12626;BME280;6378;42.684;23.372;2022-10-23T07:11:38;95799.06;;;21.48;71.17
12626;BME280;6378;42.684;23.372;2022-10-23T07:14:03;95802.69;;;20.92;73.59
12626;BME280;6378;42.684;23.372;2022-10-23T07:16:28;95802.69;;;20.88;74.20
12626;BME280;6378;42.684;23.372;2022-10-23T07:18:57;95798.78;;;21.00;74.97
12626;BME280;6378;42.684;23.372;2022-10-23T07:21:28;95792.94;;;20.84;74.02
12626;BME280;6378;42.684;23.372;2022-10-23T07:23:54;95808.94;;;21.03;73.80
12626;BME280;6378;42.684;23.372;2022-10-23T07:26:19;95798.78;;;20.89;74.72
12626;BME280;6378;42.684;23.372;2022-10-23T07:28:46;95801.50;;;21.03;74.99
12626;BME280;6378;42.684;23.372;2022-10-23T07:31:12;95796.03;;;21.03;73.63
12626;BME280;6378;42.684;23.372;2022-10-23T07:33:38;95778.06;;;20.77;74.84
12626;BME280;6378;42.684;23.372;2022-10-23T07:36:05;95820.28;;;20.98;76.05
12626;BME280;6378;42.684;23.372;2022-10-23T07:38:31;95817.56;;;21.15;75.59
12626;BME280;6378;42.684;23.372;2022-10-23T07:40:57;95816.69;;;21.47;73.58
12626;BME280;6378;42.684;23.372;2022-10-23T07:43:23;95802.25;;;21.29;73.01
12626;BME280;6378;42.684;23.372;2022-10-23T07:45:51;95806.56;;;21.12;73.43
12626;BME280;6378;42.684;23.372;2022-10-23T07:48:17;95809.72;;;21.03;72.25
12626;BME280;6378;42.684;23.372;2022-10-23T07:50:42;95816.34;;;21.13;72.99
12626;BME280;6378;42.684;23.372;2022-10-23T07:53:19;95780.78;;;21.06;71.85
12626;BME280;6378;42.684;23.372;2022-10-23T07:55:59;95804.22;;;21.28;69.62
12626;BME280;6378;42.684;23.372;2022-10-23T07:58:26;95791.38;;;20.90;71.40
12626;BME280;6378;42.684;23.372;2022-10-23T08:00:57;95808.56;;;20.94;70.23
12626;BME280;6378;42.684;23.372;2022-10-23T08:03:24;95807.75;;;21.11;72.00
12626;BME280;6378;42.684;23.372;2022-10-23T08:05:51;95783.91;;;20.87;68.20
12626;BME280;6378;42.684;23.372;2022-10-23T08:08:18;95809.75;;;20.96;70.49
12626;BME280;6378;42.684;23.372;2022-10-23T08:10:45;95801.91;;;21.05;70.61
12626;BME280;6378;42.684;23.372;2022-10-23T08:13:11;95821.44;;;21.22;70.16
12626;BME280;6378;42.684;23.372;2022-10-23T08:15:37;95801.88;;;21.09;70.61
12626;BME280;6378;42.684;23.372;2022-10-23T08:18:03;95807.75;;;21.04;72.51
12626;BME280;6378;42.684;23.372;2022-10-23T08:20:28;95814.44;;;20.96;72.31
12626;BME280;6378;42.684;23.372;2022-10-23T08:22:54;95810.53;;;20.79;73.92
12626;BME280;6378;42.684;23.372;2022-10-23T08:25:20;95803.13;;;20.62;75.64
12626;BME280;6378;42.684;23.372;2022-10-23T08:27:46;95812.88;;;20.81;75.63
12626;BME280;6378;42.684;23.372;2022-10-23T08:30:11;95819.16;;;20.67;75.30
12626;BME280;6378;42.684;23.372;2022-10-23T08:32:37;95819.13;;;20.88;74.29
12626;BME280;6378;42.684;23.372;2022-10-23T08:35:02;95795.69;;;20.80;75.56
12626;BME280;6378;42.684;23.372;2022-10-23T08:37:28;95813.28;;;20.61;77.52
12626;BME280;6378;42.684;23.372;2022-10-23T08:39:53;95811.72;;;20.71;76.92
12626;BME280;6378;42.684;23.372;2022-10-23T08:42:25;95799.59;;;20.68;76.52
12626;BME280;6378;42.684;23.372;2022-10-23T08:47:27;95808.97;;;20.74;77.44
12626;BME280;6378;42.684;23.372;2022-10-23T08:50:04;95808.16;;;20.77;77.05
12626;BME280;6378;42.684;23.372;2022-10-23T08:52:41;95810.53;;;20.90;75.79
12626;BME280;6378;42.684;23.372;2022-10-23T08:55:27;95808.91;;;21.28;74.22
12626;BME280;6378;42.684;23.372;2022-10-23T08:58:14;95804.19;;;21.42;72.35
12626;BME280;6378;42.684;23.372;2022-10-23T09:00:43;95805.31;;;21.52;72.33
12626;BME280;6378;42.684;23.372;2022-10-23T09:03:10;95818.94;;;21.73;70.87
12626;BME280;6378;42.684;23.372;2022-10-23T09:05:54;95808.03;;;21.59;71.96
12626;BME280;6378;42.684;23.372;2022-10-23T09:13:43;95802.19;;;21.46;72.53
12626;BME280;6378;42.684;23.372;2022-10-23T09:16:14;95802.19;;;21.53;71.65
12626;BME280;6378;42.684;23.372;2022-10-23T09:18:45;95809.66;;;21.49;69.72
12626;BME280;6378;42.684;23.372;2022-10-23T09:21:12;95802.25;;;21.32;70.89
12626;BME280;6378;42.684;23.372;2022-10-23T09:23:38;95810.44;;;21.43;72.73
12626;BME280;6378;42.684;23.372;2022-10-23T09:26:11;95807.66;;;21.53;69.89
12626;BME280;6378;42.684;23.372;2022-10-23T09:29:05;95802.88;;;21.75;68.24
12626;BME280;6378;42.684;23.372;2022-10-23T09:31:33;95791.25;;;21.50;68.37
12626;BME280;6378;42.684;23.372;2022-10-23T09:34:00;95800.66;;;21.49;68.50
12626;BME280;6378;42.684;23.372;2022-10-23T09:36:27;95801.81;;;21.48;68.04
12626;BME280;6378;42.684;23.372;2022-10-23T09:38:55;95789.38;;;21.26;67.98
12626;BME280;6378;42.684;23.372;2022-10-23T09:46:40;95789.78;;;21.13;69.73
12626;BME280;6378;42.684;23.372;2022-10-23T09:49:30;95794.84;;;21.29;69.29
12626;BME280;6378;42.684;23.372;2022-10-23T09:59:54;95798.28;;;21.51;65.14
12626;BME280;6378;42.684;23.372;2022-10-23T10:02:33;95775.59;;;21.54;62.78
12626;BME280;6378;42.684;23.372;2022-10-23T10:05:10;95801.38;;;21.60;64.51
12626;BME280;6378;42.684;23.372;2022-10-23T10:07:38;95790.00;;;21.69;62.11
12626;BME280;6378;42.684;23.372;2022-10-23T10:10:06;95784.91;;;21.67;61.93
12626;BME280;6378;42.684;23.372;2022-10-23T10:12:51;95785.22;;;21.80;60.67
12626;BME280;6378;42.684;23.372;2022-10-23T10:15:42;95773.50;;;21.79;57.53
12626;BME280;6378;42.684;23.372;2022-10-23T10:20:58;95762.59;;;21.65;58.94
12626;BME280;6378;42.684;23.372;2022-10-23T10:23:36;95759.94;;;21.54;58.66
12626;BME280;6378;42.684;23.372;2022-10-23T10:34:10;95763.34;;;21.76;54.92
12626;BME280;6378;42.684;23.372;2022-10-23T10:36:55;95759.78;;;21.83;53.38
12626;BME280;6378;42.684;23.372;2022-10-23T10:39:37;95752.78;;;21.71;53.20
12626;BME280;6378;42.684;23.372;2022-10-23T10:44:41;95747.72;;;21.70;54.19
12626;BME280;6378;42.684;23.372;2022-10-23T10:55:32;95754.94;;;22.12;54.76
12626;BME280;6378;42.684;23.372;2022-10-23T10:58:17;95745.22;;;22.03;54.01
12626;BME280;6378;42.684;23.372;2022-10-23T11:00:46;95742.94;;;21.84;53.66
12626;BME280;6378;42.684;23.372;2022-10-23T11:03:37;95746.06;;;21.83;54.27
12626;BME280;6378;42.684;23.372;2022-10-23T11:06:02;95719.63;;;21.55;53.12
12626;BME280;6378;42.684;23.372;2022-10-23T11:08:35;95745.31;;;21.75;54.16
12626;BME280;6378;42.684;23.372;2022-10-23T11:13:39;95737.78;;;21.97;53.67
12626;BME280;6378;42.684;23.372;2022-10-23T11:19:03;95723.72;;;21.88;51.91
12626;BME280;6378;42.684;23.372;2022-10-23T11:25:01;95710.44;;;21.83;52.82
12626;BME280;6378;42.684;23.372;2022-10-23T11:38:25;95694.28;;;22.02;51.85
12626;BME280;6378;42.684;23.372;2022-10-23T11:40:54;95702.19;;;21.93;51.49
12626;BME280;6378;42.684;23.372;2022-10-23T11:43:47;95692.06;;;21.80;51.64
12626;BME280;6378;42.684;23.372;2022-10-23T11:48:52;95682.97;;;21.97;51.48
12626;BME280;6378;42.684;23.372;2022-10-23T11:56:35;95689.94;;;22.05;51.68
12626;BME280;6378;42.684;23.372;2022-10-23T12:02:02;95691.59;;;21.95;49.89
12626;BME280;6378;42.684;23.372;2022-10-23T12:04:45;95652.25;;;21.65;49.54
12626;BME280;6378;42.684;23.372;2022-10-23T12:07:32;95673.31;;;21.71;49.51
12626;BME280;6378;42.684;23.372;2022-10-23T12:12:32;95669.78;;;21.71;50.20
12626;BME280;6378;42.684;23.372;2022-10-23T12:17:37;95665.13;;;21.68;50.87
12626;BME280;6378;42.684;23.372;2022-10-23T12:22:47;95661.63;;;21.64;49.59
12626;BME280;6378;42.684;23.372;2022-10-23T12:25:25;95667.13;;;21.64;49.77
12626;BME280;6378;42.684;23.372;2022-10-23T12:28:02;95661.63;;;21.60;50.72
12626;BME280;6378;42.684;23.372;2022-10-23T12:36:39;95660.88;;;21.56;49.81
12626;BME280;6378;42.684;23.372;2022-10-23T12:39:27;95662.06;;;21.58;49.45
12626;BME280;6378;42.684;23.372;2022-10-23T12:41:53;95667.97;;;21.53;48.74
12626;BME280;6378;42.684;23.372;2022-10-23T12:44:19;95660.53;;;21.54;48.91
12626;BME280;6378;42.684;23.372;2022-10-23T12:46:46;95652.38;;;21.40;49.43
12626;BME280;6378;42.684;23.372;2022-10-23T12:49:24;95667.97;;;21.53;49.01
12626;BME280;6378;42.684;23.372;2022-10-23T12:52:00;95667.56;;;21.51;48.17
12626;BME280;6378;42.684;23.372;2022-10-23T12:54:27;95662.53;;;21.43;49.20
12626;BME280;6378;42.684;23.372;2022-10-23T12:56:53;95679.38;;;21.45;49.02
12626;BME280;6378;42.684;23.372;2022-10-23T12:59:27;95685.19;;;21.54;49.16
12626;BME280;6378;42.684;23.372;2022-10-23T13:01:56;95667.16;;;21.56;48.55
12626;BME280;6378;42.684;23.372;2022-10-23T13:06:58;95667.91;;;21.64;47.41
12626;BME280;6378;42.684;23.372;2022-10-23T13:11:55;95660.13;;;21.52;46.64
12626;BME280;6378;42.684;23.372;2022-10-23T13:14:55;95676.50;;;21.63;46.21
12626;BME280;6378;42.684;23.372;2022-10-23T13:17:38;95675.72;;;21.62;46.80
12626;BME280;6378;42.684;23.372;2022-10-23T13:22:42;95673.44;;;21.53;46.98
12626;BME280;6378;42.684;23.372;2022-10-23T13:25:29;95668.31;;;21.55;47.21
12626;BME280;6378;42.684;23.372;2022-10-23T13:28:12;95671.88;;;21.52;46.89
12626;BME280;6378;42.684;23.372;2022-10-23T13:30:41;95641.78;;;21.42;46.76
12626;BME280;6378;42.684;23.372;2022-10-23T13:35:57;95671.00;;;21.66;45.12
12626;BME280;6378;42.684;23.372;2022-10-23T13:38:29;95681.19;;;21.66;45.31
12626;BME280;6378;42.684;23.372;2022-10-23T13:40:57;95679.63;;;21.68;45.78
12626;BME280;6378;42.684;23.372;2022-10-23T13:43:25;95653.94;;;21.41;46.21
12626;BME280;6378;42.684;23.372;2022-10-23T13:45:51;95674.63;;;21.45;46.81
12626;BME280;6378;42.684;23.372;2022-10-23T13:48:16;95673.50;;;21.43;46.41
12626;BME280;6378;42.684;23.372;2022-10-23T13:50:42;95677.06;;;21.33;46.53
12626;BME280;6378;42.684;23.372;2022-10-23T13:53:12;95683.31;;;21.33;46.59
12626;BME280;6378;42.684;23.372;2022-10-23T13:55:40;95651.75;;;21.04;47.26
12626;BME280;6378;42.684;23.372;2022-10-23T13:58:08;95684.53;;;21.22;47.77
12626;BME280;6378;42.684;23.372;2022-10-23T14:00:33;95683.00;;;21.13;46.84
12626;BME280;6378;42.684;23.372;2022-10-23T14:02:59;95681.06;;;21.10;47.37
12626;BME280;6378;42.684;23.372;2022-10-23T14:05:24;95675.97;;;21.05;47.82
12626;BME280;6378;42.684;23.372;2022-10-23T14:07:49;95683.03;;;21.03;47.78
12626;BME280;6378;42.684;23.372;2022-10-23T14:10:15;95656.13;;;20.80;48.13
12626;BME280;6378;42.684;23.372;2022-10-23T14:12:41;95676.03;;;20.88;48.50
12626;BME280;6378;42.684;23.372;2022-10-23T14:15:08;95670.63;;;20.66;49.04
12626;BME280;6378;42.684;23.372;2022-10-23T14:17:34;95674.50;;;20.72;49.81
12626;BME280;6378;42.684;23.372;2022-10-23T14:20:00;95671.00;;;20.72;49.71
12626;BME280;6378;42.684;23.372;2022-10-23T14:22:26;95640.56;;;20.49;50.18
12626;BME280;6378;42.684;23.372;2022-10-23T14:24:51;95680.00;;;20.65;50.10
12626;BME280;6378;42.684;23.372;2022-10-23T14:27:17;95675.31;;;20.59;50.83
12626;BME280;6378;42.684;23.372;2022-10-23T14:29:42;95671.44;;;20.46;51.19
12626;BME280;6378;42.684;23.372;2022-10-23T14:32:08;95653.47;;;20.34;51.89
12626;BME280;6378;42.684;23.372;2022-10-23T14:34:33;95668.72;;;20.46;53.64
12626;BME280;6378;42.684;23.372;2022-10-23T14:36:59;95668.31;;;20.44;52.60
12626;BME280;6378;42.684;23.372;2022-10-23T14:39:24;95663.63;;;20.33;53.49
12626;BME280;6378;42.684;23.372;2022-10-23T14:41:50;95669.84;;;20.23;53.94
12626;BME280;6378;42.684;23.372;2022-10-23T14:44:15;95662.47;;;20.27;54.21
12626;BME280;6378;42.684;23.372;2022-10-23T14:46:41;95676.13;;;20.17;54.75
12626;BME280;6378;42.684;23.372;2022-10-23T14:49:06;95674.56;;;20.16;55.33
12626;BME280;6378;42.684;23.372;2022-10-23T14:51:32;95671.81;;;20.05;55.97
12626;BME280;6378;42.684;23.372;2022-10-23T14:54:01;95668.31;;;20.08;56.36
12626;BME280;6378;42.684;23.372;2022-10-23T14:56:29;95675.34;;;20.13;56.32
12626;BME280;6378;42.684;23.372;2022-10-23T14:58:54;95674.94;;;20.11;56.43
12626;BME280;6378;42.684;23.372;2022-10-23T15:01:33;95667.53;;;20.04;57.08
12626;BME280;6378;42.684;23.372;2022-10-23T15:03:59;95687.03;;;19.99;57.89
12626;BME280;6378;42.684;23.372;2022-10-23T15:06:25;95661.28;;;19.93;58.08
12626;BME280;6378;42.684;23.372;2022-10-23T15:08:52;95667.53;;;19.83;58.57
12626;BME280;6378;42.684;23.372;2022-10-23T15:11:19;95684.72;;;19.87;59.28
12626;BME280;6378;42.684;23.372;2022-10-23T15:13:44;95685.47;;;19.77;60.09